sensor_id;sensor_type;location;lat;lon;timestamp;pressure;altitude;pressure_sealevel;temperature;humidity
19676;BME280;39539;52.202;9.876;2024-03-08T00:00:31;101312.78;;;1.34;100.00
19676;BME280;39539;52.202;9.876;2024-03-08T00:02:58;101324.34;;;1.32;100.00
19676;BME280;39539;52.202;9.876;2024-03-08T00:05:24;101316.63;;;1.30;100.00
19676;BME280;39539;52.202;9.876;2024-03-08T00:07:49;101319.59;;;1.16;100.00
19676;BME280;39539;52.202;9.876;2024-03-08T00:10:14;101300.44;;;0.95;100.00
19676;BME280;39539;52.202;9.876;2024-03-08T00:12:44;101319.13;;;0.90;100.00
19676;BME280;39539;52.202;9.876;2024-03-08T00:15:14;101315.88;;;0.77;100.00
19676;BME280;39539;52.202;9.876;2024-03-08T00:17:40;101321.03;;;0.67;100.00
19676;BME280;39539;52.202;9.876;2024-03-08T00:20:06;101315.03;;;0.55;100.00
19676;BME280;39539;52.202;9.876;2024-03-08T00:22:37;101314.72;;;0.49;100.00
19676;BME280;39539;52.202;9.876;2024-03-08T00:25:04;101318.66;;;0.43;100.00
19676;BME280;39539;52.202;9.876;2024-03-08T00:27:29;101330.03;;;0.42;100.00
19676;BME280;39539;52.202;9.876;2024-03-08T00:29:58;101324.72;;;0.43;100.00
19676;BME280;39539;52.202;9.876;2024-03-08T00:32:23;101325.41;;;0.46;100.00
19676;BME280;39539;52.202;9.876;2024-03-08T00:34:50;101328.47;;;0.51;100.00
19676;BME280;39539;52.202;9.876;2024-03-08T00:37:17;101332.75;;;0.52;100.00
19676;BME280;39539;52.202;9.876;2024-03-08T00:39:43;101327.66;;;0.50;100.00
19676;BME280;39539;52.202;9.876;2024-03-08T00:42:08;101326.00;;;0.49;100.00
19676;BME280;39539;52.202;9.876;2024-03-08T00:44:33;101312.19;;;0.47;100.00
19676;BME280;39539;52.202;9.876;2024-03-08T00:46:58;101320.88;;;0.48;100.00
19676;BME280;39539;52.202;9.876;2024-03-08T00:49:24;101316.34;;;0.50;100.00
19676;BME280;39539;52.202;9.876;2024-03-08T00:51:50;101310.31;;;0.49;100.00
19676;BME280;39539;52.202;9.876;2024-03-08T00:54:15;101321.78;;;0.58;100.00
19676;BME280;39539;52.202;9.876;2024-03-08T00:56:41;101310.38;;;0.59;100.00
19676;BME280;39539;52.202;9.876;2024-03-08T00:59:07;101314.66;;;0.60;100.00
19676;BME280;39539;52.202;9.876;2024-03-08T01:01:32;101300.41;;;0.53;100.00
19676;BME280;39539;52.202;9.876;2024-03-08T01:03:58;101299.84;;;0.49;100.00
19676;BME280;39539;52.202;9.876;2024-03-08T01:06:23;101297.94;;;0.51;100.00
19676;BME280;39539;52.202;9.876;2024-03-08T01:08:49;101302.91;;;0.54;100.00
19676;BME280;39539;52.202;9.876;2024-03-08T01:11:17;101302.91;;;0.54;100.00
19676;BME280;39539;52.202;9.876;2024-03-08T01:13:43;101298.25;;;0.58;100.00
19676;BME280;39539;52.202;9.876;2024-03-08T01:16:08;101283.91;;;0.52;100.00
19676;BME280;39539;52.202;9.876;2024-03-08T01:18:34;101282.38;;;0.50;100.00
19676;BME280;39539;52.202;9.876;2024-03-08T01:20:59;101271.91;;;0.50;100.00
19676;BME280;39539;52.202;9.876;2024-03-08T01:23:24;101272.53;;;0.42;100.00
19676;BME280;39539;52.202;9.876;2024-03-08T01:25:50;101273.94;;;0.46;100.00
19676;BME280;39539;52.202;9.876;2024-03-08T01:28:22;101281.19;;;0.42;100.00
19676;BME280;39539;52.202;9.876;2024-03-08T01:30:48;101273.50;;;0.41;100.00
19676;BME280;39539;52.202;9.876;2024-03-08T01:33:15;101273.84;;;0.36;100.00
19676;BME280;39539;52.202;9.876;2024-03-08T01:35:40;101265.47;;;0.21;100.00
19676;BME280;39539;52.202;9.876;2024-03-08T01:38:06;101256.34;;;0.16;100.00
19676;BME280;39539;52.202;9.876;2024-03-08T01:40:32;101274.28;;;0.20;100.00
19676;BME280;39539;52.202;9.876;2024-03-08T01:42:57;101271.94;;;0.17;100.00
19676;BME280;39539;52.202;9.876;2024-03-08T01:45:22;101249.47;;;0.15;100.00
19676;BME280;39539;52.202;9.876;2024-03-08T01:47:48;101261.56;;;0.16;100.00
19676;BME280;39539;52.202;9.876;2024-03-08T01:50:13;101254.56;;;0.16;100.00
19676;BME280;39539;52.202;9.876;2024-03-08T01:52:41;101246.41;;;0.10;100.00
19676;BME280;39539;52.202;9.876;2024-03-08T01:55:07;101241.94;;;0.01;100.00
19676;BME280;39539;52.202;9.876;2024-03-08T01:57:33;101229.94;;;-0.02;100.00
19676;BME280;39539;52.202;9.876;2024-03-08T02:00:00;101236.00;;;-0.02;100.00
19676;BME280;39539;52.202;9.876;2024-03-08T02:02:30;101243.56;;;0.02;100.00
19676;BME280;39539;52.202;9.876;2024-03-08T02:04:57;101248.06;;;0.11;100.00
19676;BME280;39539;52.202;9.876;2024-03-08T02:07:22;101237.59;;;0.11;100.00
19676;BME280;39539;52.202;9.876;2024-03-08T02:09:48;101226.94;;;0.03;100.00
19676;BME280;39539;52.202;9.876;2024-03-08T02:12:13;101237.53;;;0.01;100.00
19676;BME280;39539;52.202;9.876;2024-03-08T02:14:38;101226.75;;;-0.06;100.00
19676;BME280;39539;52.202;9.876;2024-03-08T02:17:05;101228.66;;;-0.08;100.00
19676;BME280;39539;52.202;9.876;2024-03-08T02:19:30;101219.53;;;-0.13;100.00
19676;BME280;39539;52.202;9.876;2024-03-08T02:21:56;101213.13;;;-0.20;100.00
19676;BME280;39539;52.202;9.876;2024-03-08T02:24:22;101220.59;;;-0.16;100.00
19676;BME280;39539;52.202;9.876;2024-03-08T02:26:48;101204.81;;;-0.26;100.00
19676;BME280;39539;52.202;9.876;2024-03-08T02:29:14;101215.03;;;-0.22;100.00
19676;BME280;39539;52.202;9.876;2024-03-08T02:31:40;101214.66;;;-0.18;100.00
19676;BME280;39539;52.202;9.876;2024-03-08T02:34:05;101201.09;;;-0.12;100.00
19676;BME280;39539;52.202;9.876;2024-03-08T02:36:30;101212.72;;;-0.05;100.00
19676;BME280;39539;52.202;9.876;2024-03-08T02:39:02;101205.84;;;-0.06;100.00
19676;BME280;39539;52.202;9.876;2024-03-08T02:41:28;101220.66;;;-0.06;100.00
19676;BME280;39539;52.202;9.876;2024-03-08T02:43:53;101207.75;;;-0.08;100.00
19676;BME280;39539;52.202;9.876;2024-03-08T02:46:20;101190.22;;;-0.17;100.00
19676;BME280;39539;52.202;9.876;2024-03-08T02:48:46;101208.25;;;-0.14;100.00
19676;BME280;39539;52.202;9.876;2024-03-08T02:51:12;101209.91;;;-0.13;100.00
19676;BME280;39539;52.202;9.876;2024-03-08T02:53:38;101196.63;;;-0.21;100.00
19676;BME280;39539;52.202;9.876;2024-03-08T02:56:04;101206.56;;;-0.15;100.00
19676;BME280;39539;52.202;9.876;2024-03-08T02:58:34;101192.56;;;-0.14;100.00
19676;BME280;39539;52.202;9.876;2024-03-08T03:00:59;101192.34;;;-0.22;100.00
19676;BME280;39539;52.202;9.876;2024-03-08T03:03:24;101190.56;;;-0.21;100.00
19676;BME280;39539;52.202;9.876;2024-03-08T03:05:52;101197.44;;;-0.20;100.00
19676;BME280;39539;52.202;9.876;2024-03-08T03:08:20;101190.97;;;-0.37;100.00
19676;BME280;39539;52.202;9.876;2024-03-08T03:10:46;101189.06;;;-0.35;100.00
19676;BME280;39539;52.202;9.876;2024-03-08T03:13:11;101185.97;;;-0.40;100.00
19676;BME280;39539;52.202;9.876;2024-03-08T03:15:37;101187.66;;;-0.39;100.00
19676;BME280;39539;52.202;9.876;2024-03-08T03:18:03;101179.94;;;-0.41;100.00
19676;BME280;39539;52.202;9.876;2024-03-08T03:20:28;101157.47;;;-0.64;100.00
19676;BME280;39539;52.202;9.876;2024-03-08T03:23:06;101166.09;;;-0.53;100.00
19676;BME280;39539;52.202;9.876;2024-03-08T03:25:33;101175.47;;;-0.50;100.00
19676;BME280;39539;52.202;9.876;2024-03-08T03:28:03;101172.72;;;-0.49;100.00
19676;BME280;39539;52.202;9.876;2024-03-08T03:30:30;101161.34;;;-0.59;100.00
19676;BME280;39539;52.202;9.876;2024-03-08T03:33:02;101174.88;;;-0.54;100.00
19676;BME280;39539;52.202;9.876;2024-03-08T03:35:31;101171.31;;;-0.53;100.00
19676;BME280;39539;52.202;9.876;2024-03-08T03:37:57;101171.88;;;-0.49;100.00
19676;BME280;39539;52.202;9.876;2024-03-08T03:40:32;101177.00;;;-0.48;100.00
19676;BME280;39539;52.202;9.876;2024-03-08T03:42:58;101175.81;;;-0.55;100.00
19676;BME280;39539;52.202;9.876;2024-03-08T03:45:24;101173.69;;;-0.61;100.00
19676;BME280;39539;52.202;9.876;2024-03-08T03:47:50;101172.88;;;-0.73;100.00
19676;BME280;39539;52.202;9.876;2024-03-08T03:50:16;101169.31;;;-0.72;100.00
19676;BME280;39539;52.202;9.876;2024-03-08T03:52:44;101166.25;;;-0.77;100.00
19676;BME280;39539;52.202;9.876;2024-03-08T03:55:10;101168.50;;;-0.83;100.00
19676;BME280;39539;52.202;9.876;2024-03-08T03:57:37;101175.19;;;-1.02;100.00
19676;BME280;39539;52.202;9.876;2024-03-08T04:00:03;101168.88;;;-0.99;100.00
19676;BME280;39539;52.202;9.876;2024-03-08T04:02:29;101169.72;;;-1.10;100.00
19676;BME280;39539;52.202;9.876;2024-03-08T04:04:55;101174.47;;;-1.04;100.00
19676;BME280;39539;52.202;9.876;2024-03-08T04:07:21;101173.97;;;-1.09;100.00
19676;BME280;39539;52.202;9.876;2024-03-08T04:09:46;101169.97;;;-1.02;100.00
19676;BME280;39539;52.202;9.876;2024-03-08T04:12:12;101179.19;;;-0.98;100.00
19676;BME280;39539;52.202;9.876;2024-03-08T04:14:39;101174.22;;;-1.01;100.00
19676;BME280;39539;52.202;9.876;2024-03-08T04:17:05;101180.50;;;-1.03;100.00
19676;BME280;39539;52.202;9.876;2024-03-08T04:19:31;101170.16;;;-1.05;100.00
19676;BME280;39539;52.202;9.876;2024-03-08T04:21:56;101172.69;;;-1.03;100.00
19676;BME280;39539;52.202;9.876;2024-03-08T04:24:22;101180.41;;;-1.02;100.00
19676;BME280;39539;52.202;9.876;2024-03-08T04:26:47;101175.88;;;-1.00;100.00
19676;BME280;39539;52.202;9.876;2024-03-08T04:29:12;101174.81;;;-1.08;100.00
19676;BME280;39539;52.202;9.876;2024-03-08T04:31:40;101170.78;;;-1.13;100.00
19676;BME280;39539;52.202;9.876;2024-03-08T04:34:05;101165.19;;;-1.19;100.00
19676;BME280;39539;52.202;9.876;2024-03-08T04:36:30;101155.13;;;-1.24;100.00
19676;BME280;39539;52.202;9.876;2024-03-08T04:38:56;101160.34;;;-1.13;100.00
19676;BME280;39539;52.202;9.876;2024-03-08T04:41:21;101163.06;;;-1.14;100.00
19676;BME280;39539;52.202;9.876;2024-03-08T04:43:48;101165.66;;;-1.14;100.00
19676;BME280;39539;52.202;9.876;2024-03-08T04:46:14;101145.03;;;-1.28;100.00
19676;BME280;39539;52.202;9.876;2024-03-08T04:48:39;101146.00;;;-1.29;100.00
19676;BME280;39539;52.202;9.876;2024-03-08T04:51:07;101156.78;;;-1.23;100.00
19676;BME280;39539;52.202;9.876;2024-03-08T04:53:32;101160.94;;;-1.20;100.00
19676;BME280;39539;52.202;9.876;2024-03-08T04:55:59;101159.06;;;-1.18;100.00
19676;BME280;39539;52.202;9.876;2024-03-08T04:58:24;101155.13;;;-1.24;100.00
19676;BME280;39539;52.202;9.876;2024-03-08T05:00:50;101151.81;;;-1.26;100.00
19676;BME280;39539;52.202;9.876;2024-03-08T05:03:16;101158.91;;;-1.28;100.00
19676;BME280;39539;52.202;9.876;2024-03-08T05:05:41;101149.53;;;-1.30;100.00
19676;BME280;39539;52.202;9.876;2024-03-08T05:08:07;101160.22;;;-1.22;100.00
19676;BME280;39539;52.202;9.876;2024-03-08T05:10:32;101162.13;;;-1.13;100.00
19676;BME280;39539;52.202;9.876;2024-03-08T05:12:58;101132.84;;;-1.28;100.00
19676;BME280;39539;52.202;9.876;2024-03-08T05:15:23;101161.66;;;-1.18;100.00
19676;BME280;39539;52.202;9.876;2024-03-08T05:17:48;101136.50;;;-1.42;100.00
19676;BME280;39539;52.202;9.876;2024-03-08T05:20:15;101159.16;;;-1.31;100.00
19676;BME280;39539;52.202;9.876;2024-03-08T05:22:42;101150.50;;;-1.43;100.00
19676;BME280;39539;52.202;9.876;2024-03-08T05:25:08;101155.72;;;-1.43;100.00
19676;BME280;39539;52.202;9.876;2024-03-08T05:27:34;101161.75;;;-1.42;100.00
19676;BME280;39539;52.202;9.876;2024-03-08T05:30:00;101127.97;;;-1.66;100.00
19676;BME280;39539;52.202;9.876;2024-03-08T05:32:25;101145.50;;;-1.46;100.00
19676;BME280;39539;52.202;9.876;2024-03-08T05:34:51;101137.69;;;-1.46;100.00
19676;BME280;39539;52.202;9.876;2024-03-08T05:37:17;101135.91;;;-1.45;100.00
19676;BME280;39539;52.202;9.876;2024-03-08T05:39:42;101144.31;;;-1.30;100.00
19676;BME280;39539;52.202;9.876;2024-03-08T05:42:09;101155.47;;;-1.17;100.00
19676;BME280;39539;52.202;9.876;2024-03-08T05:44:35;101151.00;;;-1.15;100.00
19676;BME280;39539;52.202;9.876;2024-03-08T05:47:00;101145.28;;;-1.20;100.00
19676;BME280;39539;52.202;9.876;2024-03-08T05:49:25;101154.06;;;-1.10;100.00
19676;BME280;39539;52.202;9.876;2024-03-08T05:51:51;101156.06;;;-1.14;100.00
19676;BME280;39539;52.202;9.876;2024-03-08T05:54:17;101160.94;;;-1.09;100.00
19676;BME280;39539;52.202;9.876;2024-03-08T05:56:42;101162.00;;;-1.11;100.00
19676;BME280;39539;52.202;9.876;2024-03-08T05:59:08;101161.66;;;-1.07;100.00
19676;BME280;39539;52.202;9.876;2024-03-08T06:01:34;101165.19;;;-1.08;100.00
19676;BME280;39539;52.202;9.876;2024-03-08T06:04:03;101171.25;;;-1.07;100.00
19676;BME280;39539;52.202;9.876;2024-03-08T06:06:29;101162.97;;;-1.13;100.00
19676;BME280;39539;52.202;9.876;2024-03-08T06:08:54;101159.97;;;-1.08;100.00
19676;BME280;39539;52.202;9.876;2024-03-08T06:11:24;101165.91;;;-1.06;100.00
19676;BME280;39539;52.202;9.876;2024-03-08T06:13:52;101162.59;;;-0.97;100.00
19676;BME280;39539;52.202;9.876;2024-03-08T06:16:17;101165.19;;;-0.97;100.00
19676;BME280;39539;52.202;9.876;2024-03-08T06:18:43;101162.22;;;-0.92;100.00
19676;BME280;39539;52.202;9.876;2024-03-08T06:21:08;101164.59;;;-0.89;100.00
19676;BME280;39539;52.202;9.876;2024-03-08T06:23:38;101167.31;;;-0.79;100.00
19676;BME280;39539;52.202;9.876;2024-03-08T06:26:07;101171.34;;;-0.75;100.00
19676;BME280;39539;52.202;9.876;2024-03-08T06:28:33;101162.56;;;-0.74;100.00
19676;BME280;39539;52.202;9.876;2024-03-08T06:30:59;101155.91;;;-0.67;100.00
19676;BME280;39539;52.202;9.876;2024-03-08T06:33:25;101159.69;;;-0.60;100.00
19676;BME280;39539;52.202;9.876;2024-03-08T06:35:56;101160.28;;;-0.56;100.00
19676;BME280;39539;52.202;9.876;2024-03-08T06:38:25;101150.19;;;-0.50;100.00
19676;BME280;39539;52.202;9.876;2024-03-08T06:40:51;101152.91;;;-0.51;100.00
19676;BME280;39539;52.202;9.876;2024-03-08T06:43:17;101151.56;;;-0.46;100.00
19676;BME280;39539;52.202;9.876;2024-03-08T06:45:46;101148.84;;;-0.44;100.00
19676;BME280;39539;52.202;9.876;2024-03-08T06:48:17;101151.34;;;-0.42;100.00
19676;BME280;39539;52.202;9.876;2024-03-08T06:50:44;101152.97;;;-0.30;100.00
19676;BME280;39539;52.202;9.876;2024-03-08T06:53:10;101154.50;;;-0.28;100.00
19676;BME280;39539;52.202;9.876;2024-03-08T06:55:36;101166.66;;;0.57;100.00
19676;BME280;39539;52.202;9.876;2024-03-08T06:58:02;101177.47;;;1.45;100.00
19676;BME280;39539;52.202;9.876;2024-03-08T07:00:27;101178.75;;;2.18;95.32
19676;BME280;39539;52.202;9.876;2024-03-08T07:02:55;101182.00;;;2.50;90.26
19676;BME280;39539;52.202;9.876;2024-03-08T07:05:22;101202.44;;;3.76;86.07
19676;BME280;39539;52.202;9.876;2024-03-08T07:07:49;101196.47;;;5.06;77.49
19676;BME280;39539;52.202;9.876;2024-03-08T07:10:16;101176.00;;;4.91;77.40
19676;BME280;39539;52.202;9.876;2024-03-08T07:12:41;101192.00;;;5.99;71.38
19676;BME280;39539;52.202;9.876;2024-03-08T07:15:08;101177.31;;;6.05;68.83
19676;BME280;39539;52.202;9.876;2024-03-08T07:17:38;101168.72;;;6.44;68.56
19676;BME280;39539;52.202;9.876;2024-03-08T07:20:05;101179.69;;;6.96;67.06
19676;BME280;39539;52.202;9.876;2024-03-08T07:22:36;101160.31;;;7.67;63.89
19676;BME280;39539;52.202;9.876;2024-03-08T07:25:02;101166.72;;;8.41;60.62
19676;BME280;39539;52.202;9.876;2024-03-08T07:27:33;101155.56;;;7.85;60.31
19676;BME280;39539;52.202;9.876;2024-03-08T07:30:01;101147.34;;;8.18;60.20
19676;BME280;39539;52.202;9.876;2024-03-08T07:32:27;101129.00;;;8.16;59.06
19676;BME280;39539;52.202;9.876;2024-03-08T07:34:57;101142.31;;;9.41;56.33
19676;BME280;39539;52.202;9.876;2024-03-08T07:37:23;101126.66;;;9.47;55.68
19676;BME280;39539;52.202;9.876;2024-03-08T07:39:49;101121.66;;;9.37;56.15
19676;BME280;39539;52.202;9.876;2024-03-08T07:42:15;101115.00;;;10.12;54.40
19676;BME280;39539;52.202;9.876;2024-03-08T07:44:41;101117.44;;;11.11;53.28
19676;BME280;39539;52.202;9.876;2024-03-08T07:47:07;101112.69;;;12.28;50.45
19676;BME280;39539;52.202;9.876;2024-03-08T07:49:37;101079.09;;;10.86;51.87
19676;BME280;39539;52.202;9.876;2024-03-08T07:52:03;101088.31;;;11.91;49.50
19676;BME280;39539;52.202;9.876;2024-03-08T07:54:30;101076.81;;;11.71;50.06
19676;BME280;39539;52.202;9.876;2024-03-08T07:56:56;101072.16;;;11.93;49.49
19676;BME280;39539;52.202;9.876;2024-03-08T07:59:21;101058.78;;;11.66;49.46
19676;BME280;39539;52.202;9.876;2024-03-08T08:01:47;101043.97;;;11.10;49.82
19676;BME280;39539;52.202;9.876;2024-03-08T08:04:13;101017.53;;;10.41;51.17
19676;BME280;39539;52.202;9.876;2024-03-08T08:06:41;101023.28;;;10.16;52.19
19676;BME280;39539;52.202;9.876;2024-03-08T08:09:07;101014.44;;;10.02;52.63
19676;BME280;39539;52.202;9.876;2024-03-08T08:11:42;101001.06;;;9.39;53.46
19676;BME280;39539;52.202;9.876;2024-03-08T08:14:10;100991.06;;;9.35;54.01
19676;BME280;39539;52.202;9.876;2024-03-08T08:16:36;101000.06;;;9.40;54.09
19676;BME280;39539;52.202;9.876;2024-03-08T08:19:07;100982.63;;;9.31;54.72
19676;BME280;39539;52.202;9.876;2024-03-08T08:21:36;100976.94;;;9.56;54.94
19676;BME280;39539;52.202;9.876;2024-03-08T08:24:03;100987.00;;;9.95;53.95
19676;BME280;39539;52.202;9.876;2024-03-08T08:26:28;100986.06;;;10.44;52.61
19676;BME280;39539;52.202;9.876;2024-03-08T08:28:54;100974.66;;;10.50;52.33
19676;BME280;39539;52.202;9.876;2024-03-08T08:31:20;100985.78;;;10.81;51.45
19676;BME280;39539;52.202;9.876;2024-03-08T08:33:46;100980.53;;;11.74;50.57
19676;BME280;39539;52.202;9.876;2024-03-08T08:36:13;100977.91;;;11.87;49.77
19676;BME280;39539;52.202;9.876;2024-03-08T08:38:39;100962.31;;;11.57;50.37
19676;BME280;39539;52.202;9.876;2024-03-08T08:41:04;100948.63;;;11.34;50.11
19676;BME280;39539;52.202;9.876;2024-03-08T08:43:31;100961.50;;;11.23;50.08
19676;BME280;39539;52.202;9.876;2024-03-08T08:45:59;100937.31;;;10.24;51.40
19676;BME280;39539;52.202;9.876;2024-03-08T08:48:25;100934.72;;;9.96;53.12
19676;BME280;39539;52.202;9.876;2024-03-08T08:50:50;100918.00;;;9.67;54.44
19676;BME280;39539;52.202;9.876;2024-03-08T08:53:17;100907.91;;;9.49;53.93
19676;BME280;39539;52.202;9.876;2024-03-08T08:55:43;100905.94;;;9.36;55.00
19676;BME280;39539;52.202;9.876;2024-03-08T08:58:11;100900.06;;;9.41;55.16
19676;BME280;39539;52.202;9.876;2024-03-08T09:00:36;100908.81;;;9.35;55.38
19676;BME280;39539;52.202;9.876;2024-03-08T09:03:02;100902.66;;;9.06;55.89
19676;BME280;39539;52.202;9.876;2024-03-08T09:05:27;100865.69;;;8.19;57.32
19676;BME280;39539;52.202;9.876;2024-03-08T09:07:54;100873.84;;;7.73;58.73
19676;BME280;39539;52.202;9.876;2024-03-08T09:10:20;100864.59;;;7.24;61.00
19676;BME280;39539;52.202;9.876;2024-03-08T09:12:46;100865.84;;;6.75;63.68
19676;BME280;39539;52.202;9.876;2024-03-08T09:15:12;100867.22;;;6.48;64.88
19676;BME280;39539;52.202;9.876;2024-03-08T09:17:38;100859.38;;;6.32;65.11
19676;BME280;39539;52.202;9.876;2024-03-08T09:20:08;100878.06;;;6.77;65.94
19676;BME280;39539;52.202;9.876;2024-03-08T09:22:36;100884.94;;;7.38;63.05
19676;BME280;39539;52.202;9.876;2024-03-08T09:25:02;100884.72;;;7.48;62.45
19676;BME280;39539;52.202;9.876;2024-03-08T09:27:30;100870.66;;;7.77;61.87
19676;BME280;39539;52.202;9.876;2024-03-08T09:29:59;100864.97;;;7.36;62.45
19676;BME280;39539;52.202;9.876;2024-03-08T09:32:24;100863.25;;;7.43;63.57
19676;BME280;39539;52.202;9.876;2024-03-08T09:34:49;100886.75;;;8.12;61.98
19676;BME280;39539;52.202;9.876;2024-03-08T09:37:15;100865.09;;;8.23;61.04
19676;BME280;39539;52.202;9.876;2024-03-08T09:39:41;100851.59;;;7.82;61.42
19676;BME280;39539;52.202;9.876;2024-03-08T09:42:06;100849.59;;;7.54;61.88
19676;BME280;39539;52.202;9.876;2024-03-08T09:44:32;100848.03;;;7.60;62.36
19676;BME280;39539;52.202;9.876;2024-03-08T09:47:00;100825.59;;;7.41;61.27
19676;BME280;39539;52.202;9.876;2024-03-08T09:49:27;100837.00;;;7.56;62.70
19676;BME280;39539;52.202;9.876;2024-03-08T09:51:55;100812.22;;;7.28;62.60
19676;BME280;39539;52.202;9.876;2024-03-08T09:54:25;100795.28;;;6.84;65.33
19676;BME280;39539;52.202;9.876;2024-03-08T09:56:52;100812.00;;;7.00;64.85
19676;BME280;39539;52.202;9.876;2024-03-08T09:59:18;100814.16;;;6.96;65.16
19676;BME280;39539;52.202;9.876;2024-03-08T10:01:52;100824.59;;;7.72;62.29
19676;BME280;39539;52.202;9.876;2024-03-08T10:04:22;100815.53;;;8.17;60.75
19676;BME280;39539;52.202;9.876;2024-03-08T10:06:48;100834.44;;;8.93;59.59
19676;BME280;39539;52.202;9.876;2024-03-08T10:09:15;100837.56;;;9.32;57.12
19676;BME280;39539;52.202;9.876;2024-03-08T10:11:41;100816.00;;;8.85;58.77
19676;BME280;39539;52.202;9.876;2024-03-08T10:14:09;100812.25;;;9.29;58.53
19676;BME280;39539;52.202;9.876;2024-03-08T10:16:39;100811.59;;;9.62;58.18
19676;BME280;39539;52.202;9.876;2024-03-08T10:19:05;100796.88;;;9.18;57.32
19676;BME280;39539;52.202;9.876;2024-03-08T10:21:32;100793.88;;;9.28;56.09
19676;BME280;39539;52.202;9.876;2024-03-08T10:23:58;100775.16;;;8.73;59.41
19676;BME280;39539;52.202;9.876;2024-03-08T10:26:24;100739.59;;;7.60;62.90
19676;BME280;39539;52.202;9.876;2024-03-08T10:28:51;100753.94;;;7.21;65.84
19676;BME280;39539;52.202;9.876;2024-03-08T10:31:18;100737.09;;;6.55;67.94
19676;BME280;39539;52.202;9.876;2024-03-08T10:33:45;100728.69;;;6.13;69.88
19676;BME280;39539;52.202;9.876;2024-03-08T10:36:13;100749.22;;;6.03;70.70
19676;BME280;39539;52.202;9.876;2024-03-08T10:38:42;100752.78;;;6.10;71.48
19676;BME280;39539;52.202;9.876;2024-03-08T10:41:10;100745.63;;;5.96;71.98
19676;BME280;39539;52.202;9.876;2024-03-08T10:49:14;100751.91;;;5.95;73.07
19676;BME280;39539;52.202;9.876;2024-03-08T10:51:40;100766.16;;;6.08;72.12
19676;BME280;39539;52.202;9.876;2024-03-08T10:54:09;100770.69;;;5.92;74.82
19676;BME280;39539;52.202;9.876;2024-03-08T10:56:35;100773.78;;;6.03;72.13
19676;BME280;39539;52.202;9.876;2024-03-08T10:59:01;100756.44;;;6.09;72.42
19676;BME280;39539;52.202;9.876;2024-03-08T11:01:30;100748.72;;;6.22;74.38
19676;BME280;39539;52.202;9.876;2024-03-08T11:03:56;100760.31;;;6.21;75.78
19676;BME280;39539;52.202;9.876;2024-03-08T11:08:57;100765.97;;;6.33;72.33
19676;BME280;39539;52.202;9.876;2024-03-08T11:11:25;100763.59;;;6.46;72.16
19676;BME280;39539;52.202;9.876;2024-03-08T11:13:57;100747.09;;;6.44;73.56
19676;BME280;39539;52.202;9.876;2024-03-08T11:18:58;100745.81;;;6.40;70.27
19676;BME280;39539;52.202;9.876;2024-03-08T11:21:32;100737.13;;;6.32;73.78
19676;BME280;39539;52.202;9.876;2024-03-08T11:24:10;100745.91;;;6.47;74.75
19676;BME280;39539;52.202;9.876;2024-03-08T11:26:47;100729.47;;;6.37;72.53
19676;BME280;39539;52.202;9.876;2024-03-08T11:32:05;100712.50;;;6.16;73.20
19676;BME280;39539;52.202;9.876;2024-03-08T11:34:32;100711.56;;;6.09;74.53
19676;BME280;39539;52.202;9.876;2024-03-08T11:36:58;100724.81;;;6.01;75.26
19676;BME280;39539;52.202;9.876;2024-03-08T11:39:24;100696.16;;;5.98;76.05
19676;BME280;39539;52.202;9.876;2024-03-08T11:41:50;100706.16;;;6.25;74.50
19676;BME280;39539;52.202;9.876;2024-03-08T11:44:16;100712.00;;;6.36;77.14
19676;BME280;39539;52.202;9.876;2024-03-08T11:46:43;100695.00;;;6.38;75.85
19676;BME280;39539;52.202;9.876;2024-03-08T11:49:13;100706.41;;;6.53;74.46
19676;BME280;39539;52.202;9.876;2024-03-08T11:51:39;100688.19;;;6.44;74.14
19676;BME280;39539;52.202;9.876;2024-03-08T11:54:06;100677.66;;;6.21;74.01
19676;BME280;39539;52.202;9.876;2024-03-08T11:56:31;100693.00;;;6.40;75.41
19676;BME280;39539;52.202;9.876;2024-03-08T11:58:57;100692.66;;;6.43;74.48
19676;BME280;39539;52.202;9.876;2024-03-08T12:01:23;100678.91;;;6.48;75.15
19676;BME280;39539;52.202;9.876;2024-03-08T12:03:56;100698.47;;;6.39;73.71
19676;BME280;39539;52.202;9.876;2024-03-08T12:06:37;100659.97;;;6.44;75.72
19676;BME280;39539;52.202;9.876;2024-03-08T12:09:09;100666.34;;;6.50;75.18
19676;BME280;39539;52.202;9.876;2024-03-08T12:11:36;100658.13;;;6.45;74.38
19676;BME280;39539;52.202;9.876;2024-03-08T12:14:03;100649.97;;;6.40;74.26
19676;BME280;39539;52.202;9.876;2024-03-08T12:16:28;100668.69;;;6.45;74.54
19676;BME280;39539;52.202;9.876;2024-03-08T12:18:54;100666.34;;;6.50;72.58
19676;BME280;39539;52.202;9.876;2024-03-08T12:21:20;100661.88;;;6.50;73.77
19676;BME280;39539;52.202;9.876;2024-03-08T12:23:47;100656.97;;;6.47;74.86
19676;BME280;39539;52.202;9.876;2024-03-08T12:26:24;100642.84;;;6.40;75.51
19676;BME280;39539;52.202;9.876;2024-03-08T12:28:52;100651.94;;;6.38;74.91
19676;BME280;39539;52.202;9.876;2024-03-08T12:31:18;100639.03;;;6.43;75.55
19676;BME280;39539;52.202;9.876;2024-03-08T12:33:55;100633.75;;;6.43;77.41
19676;BME280;39539;52.202;9.876;2024-03-08T12:36:24;100622.19;;;6.44;76.09
19676;BME280;39539;52.202;9.876;2024-03-08T12:38:50;100634.84;;;6.48;74.87
19676;BME280;39539;52.202;9.876;2024-03-08T12:41:17;100631.84;;;6.51;75.86
19676;BME280;39539;52.202;9.876;2024-03-08T12:43:47;100604.59;;;6.51;75.24
19676;BME280;39539;52.202;9.876;2024-03-08T12:46:19;100613.16;;;6.53;76.43
19676;BME280;39539;52.202;9.876;2024-03-08T12:48:46;100623.09;;;6.51;75.01
19676;BME280;39539;52.202;9.876;2024-03-08T12:51:16;100603.41;;;6.53;75.90
19676;BME280;39539;52.202;9.876;2024-03-08T12:53:43;100597.69;;;6.65;73.91
19676;BME280;39539;52.202;9.876;2024-03-08T12:56:13;100608.88;;;6.67;75.48
19676;BME280;39539;52.202;9.876;2024-03-08T12:58:41;100595.16;;;6.71;74.45
19676;BME280;39539;52.202;9.876;2024-03-08T13:01:10;100657.38;;;6.74;73.57